KSMF data

Available data for KSMF from the past 2 hours
SACRAMENTO/METRO, CA
TAF
KSMF 212340Z 2200/2224 34006KT P6SM SCT120 SCT250 FM220400 17007KT P6SM SCT120 SCT250 FM221800 22007KT P6SM BKN120 TEMPO 2221/2224 P6SM -RA BKN050